Time;durP1;ratioP1;P1;durP2;ratioP2;P2;SDS_P1;SDS_P2;PMS_P1;PMS_P2;Temp;Humidity;BMP_temperature;BMP_pressure;BME280_temperature;BME280_humidity;BME280_pressure;Samples;Min_cycle;Max_cycle;Signal;HPM_P1;HPM_P2
2023/06/22 00:02:28;;;;;;;10.75;4.07;;;;;;;23.19;63.84;99986.66;7721766;32;40012;-79
2023/06/22 00:06:45;;;;;;;10.23;3.83;;;;;;;23.19;64.08;99986.66;7724686;32;38787;-79
2023/06/22 00:11:01;;;;;;;14.30;4.12;;;;;;;23.17;64.08;99983.44;7738558;32;37197;-79
2023/06/22 00:15:17;;;;;;;12.85;3.70;;;;;;;23.50;62.59;99982.38;7738526;32;39871;-79
2023/06/22 00:19:35;;;;;;;9.98;3.65;;;;;;;23.26;63.37;99980.50;7738446;32;39640;-79
2023/06/22 00:23:51;;;;;;;10.32;4.10;;;;;;;23.25;63.95;99981.69;7736667;32;38423;-78
2023/06/22 00:28:08;;;;;;;13.05;4.43;;;;;;;23.02;64.85;99981.34;7711470;32;37213;-79
2023/06/22 00:32:25;;;;;;;14.95;3.92;;;;;;;23.21;64.08;99967.66;7711592;32;39393;-78
2023/06/22 00:36:41;;;;;;;10.90;4.50;;;;;;;23.21;64.12;99972.41;7711432;32;40025;-79
2023/06/22 00:40:57;;;;;;;11.98;4.55;;;;;;;23.12;64.25;99971.75;7711419;32;37601;-79
2023/06/22 00:45:13;;;;;;;14.60;4.43;;;;;;;23.04;64.06;99979.03;7711325;32;37063;-79
2023/06/22 00:49:30;;;;;;;12.15;4.35;;;;;;;22.91;64.44;99977.47;7735579;32;39273;-79
2023/06/22 00:53:47;;;;;;;7.47;3.87;;;;;;;22.91;64.28;99981.03;7724426;32;40791;-79
2023/06/22 00:58:10;;;;;;;16.27;4.28;;;;;;;22.84;64.98;99976.06;7698336;32;37642;-79
2023/06/22 01:02:26;;;;;;;;;;;;;;;22.75;65.31;99989.28;7698230;32;36941;-78
2023/06/22 01:07:01;;;;;;;9.55;4.47;;;;;;;22.73;65.26;99977.69;7710251;32;40402;-79
2023/06/22 01:11:28;;;;;;;10.50;4.53;;;;;;;22.90;64.68;99973.84;7714386;32;40620;-78
2023/06/22 01:15:57;;;;;;;13.23;4.03;;;;;;;22.78;65.25;99977.47;7724668;32;38047;-79
2023/06/22 01:20:15;;;;;;;9.43;4.10;;;;;;;22.87;65.00;99980.94;7737653;32;37872;-79
2023/06/22 01:25:00;;;;;;;12.18;4.25;;;;;;;22.86;65.10;99973.75;7723934;32;38200;-79
2023/06/22 01:29:17;;;;;;;12.05;3.78;;;;;;;22.87;65.28;99980.94;7737481;32;39876;-78
2023/06/22 01:33:36;;;;;;;9.35;3.55;;;;;;;22.81;65.47;99982.31;7729683;32;37616;-79
2023/06/22 01:37:53;;;;;;;12.35;3.90;;;;;;;22.81;65.46;99987.09;7697185;32;37024;-79
2023/06/22 01:42:10;;;;;;;13.95;4.35;;;;;;;22.69;65.83;99990.69;7696720;32;39262;-79
2023/06/22 01:46:26;;;;;;;9.23;3.60;;;;;;;22.77;65.58;99984.19;7710272;32;40842;-79
2023/06/22 01:50:43;;;;;;;8.43;3.85;;;;;;;22.75;66.05;99988.47;7710246;32;37965;-79
2023/06/22 01:55:00;;;;;;;9.40;4.18;;;;;;;22.87;65.39;99989.28;7710972;32;37706;-79
2023/06/22 01:59:31;;;;;;;10.70;4.50;;;;;;;22.48;67.10;99983.28;7737034;32;39395;-78
2023/06/22 02:04:11;;;;;;;8.68;3.78;;;;;;;22.65;66.36;99992.56;7732635;32;39654;-79
2023/06/22 02:08:41;;;;;;;10.68;4.50;;;;;;;22.78;65.74;99990.56;7698690;32;38005;-79
2023/06/22 02:12:58;;;;;;;9.20;3.83;;;;;;;22.71;65.95;99996.69;7709767;32;37039;-79
2023/06/22 02:17:16;;;;;;;12.43;4.20;;;;;;;22.71;65.68;100001.44;7709564;32;39381;-79
2023/06/22 02:21:33;;;;;;;8.60;4.03;;;;;;;22.74;65.59;100000.75;7722693;32;40938;-78
2023/06/22 02:25:49;;;;;;;8.07;3.62;;;;;;;22.76;65.47;99990.91;7739623;32;38838;-78
2023/06/22 02:30:09;;;;;;;10.43;3.67;;;;;;;22.75;65.33;99994.84;7739586;32;37607;-80
2023/06/22 02:34:26;;;;;;;8.15;4.35;;;;;;;22.78;65.19;99999.69;7739811;32;39110;-78
2023/06/22 02:38:48;;;;;;;15.50;4.12;;;;;;;22.33;66.28;100010.94;7739329;32;40136;-78
2023/06/22 02:43:04;;;;;;;16.42;4.78;;;;;;;22.40;65.86;100011.97;7728571;32;38012;-78
2023/06/22 02:47:21;;;;;;;15.73;4.47;;;;;;;22.53;65.27;100018.34;7712618;32;37902;-78
2023/06/22 02:51:41;;;;;;;9.27;3.58;;;;;;;22.54;65.37;100021.94;7712723;32;40168;-78
2023/06/22 02:55:58;;;;;;;10.05;4.03;;;;;;;22.54;65.59;100024.72;7712685;32;39629;-79
2023/06/22 03:00:17;;;;;;;8.65;3.90;;;;;;;22.60;65.35;100021.38;7712522;32;37882;-79
2023/06/22 03:04:35;;;;;;;11.20;4.20;;;;;;;22.54;65.76;100025.53;7722114;32;37209;-78
2023/06/22 03:08:52;;;;;;;11.40;3.70;;;;;;;22.32;66.44;100012.91;7716516;32;39854;-78
2023/06/22 03:13:08;;;;;;;8.38;3.70;;;;;;;22.52;65.92;100033.41;7739195;32;39952;-78
2023/06/22 03:17:25;;;;;;;12.68;4.53;;;;;;;22.58;65.62;100034.81;7739148;32;38035;-78
2023/06/22 03:21:42;;;;;;;14.50;4.20;;;;;;;22.56;66.04;100026.00;7721994;32;36870;-71
2023/06/22 03:25:58;;;;;;;9.73;4.15;;;;;;;22.63;66.28;100019.87;7712195;32;40130;-72
2023/06/22 03:30:14;;;;;;;15.80;4.20;;;;;;;22.79;65.46;100015.22;7712946;32;41003;-71
2023/06/22 03:34:33;;;;;;;10.20;4.55;;;;;;;22.71;65.67;100021.69;7738778;32;38126;-72
2023/06/22 03:38:50;;;;;;;12.80;5.20;;;;;;;22.25;67.65;100020.94;7738997;32;38078;-71
2023/06/22 03:43:07;;;;;;;10.55;4.25;;;;;;;22.52;66.59;100019.50;7738979;32;39380;-71
2023/06/22 03:47:23;;;;;;;11.40;4.12;;;;;;;22.35;66.91;100019.72;7738754;32;39984;-71
2023/06/22 03:51:39;;;;;;;14.70;3.85;;;;;;;22.52;66.36;100021.47;7738720;32;38567;-72
2023/06/22 03:55:56;;;;;;;11.85;3.78;;;;;;;22.31;67.16;100019.63;7713699;32;37786;-72
2023/06/22 04:00:13;;;;;;;7.95;3.83;;;;;;;22.02;68.14;100026.94;7712082;32;39403;-72
2023/06/22 04:04:29;;;;;;;10.85;4.43;;;;;;;21.82;69.21;100031.41;7717889;32;41018;-71
2023/06/22 04:08:50;;;;;;;16.62;5.47;;;;;;;21.93;69.07;100037.31;7711710;32;38652;-72
2023/06/22 04:13:07;;;;;;;18.23;5.03;;;;;;;21.75;70.13;100036.69;7685281;32;38301;-71
2023/06/22 04:17:24;;;;;;;15.27;6.20;;;;;;;21.94;69.61;100042.53;7688753;32;40261;-71
2023/06/22 04:21:41;;;;;;;13.75;4.90;;;;;;;21.90;70.10;100043.53;7738411;32;40057;-71
2023/06/22 04:25:59;;;;;;;12.85;5.53;;;;;;;21.86;70.69;100042.62;7726013;32;37689;-71
2023/06/22 04:30:16;;;;;;;11.25;5.00;;;;;;;22.13;69.42;100035.66;7727923;32;37992;-71
2023/06/22 04:34:32;;;;;;;14.95;4.93;;;;;;;22.42;68.35;100037.47;7738374;32;39441;-71
2023/06/22 04:38:52;;;;;;;15.95;5.20;;;;;;;22.46;68.30;100054.25;7738178;32;40756;-72
2023/06/22 04:43:10;;;;;;;12.45;5.45;;;;;;;22.62;67.83;100051.59;7720474;32;37934;-71
2023/06/22 04:47:26;;;;;;;14.45;5.43;;;;;;;22.71;67.16;100051.47;7712892;32;37035;-72
2023/06/22 04:51:43;;;;;;;15.02;4.90;;;;;;;22.83;66.75;100049.47;7738118;32;39353;-71
2023/06/22 04:55:59;;;;;;;16.77;4.75;;;;;;;22.97;66.07;100045.53;7737961;32;40098;-72
2023/06/22 05:00:17;;;;;;;13.13;5.35;;;;;;;22.84;66.21;100048.34;7737859;32;37661;-72
2023/06/22 05:04:35;;;;;;;10.57;4.80;;;;;;;22.97;66.04;100056.66;7737831;32;38373;-72
2023/06/22 05:08:57;;;;;;;10.35;4.95;;;;;;;22.69;66.86;100057.37;7737879;32;39273;-71
2023/06/22 05:13:14;;;;;;;16.02;5.50;;;;;;;22.90;66.28;100060.03;7714592;32;39788;-71
2023/06/22 05:17:30;;;;;;;16.92;4.75;;;;;;;23.02;65.96;100059.19;7710910;32;39025;-71
2023/06/22 05:21:47;;;;;;;14.45;4.70;;;;;;;22.84;66.52;100065.00;7710710;32;37873;-71
2023/06/22 05:26:03;;;;;;;15.65;4.97;;;;;;;22.94;66.27;100068.47;7710883;32;40158;-72
2023/06/22 05:30:19;;;;;;;16.23;6.53;;;;;;;23.29;65.09;100066.03;7710498;32;39779;-72
2023/06/22 05:34:37;;;;;;;14.40;6.05;;;;;;;23.40;64.24;100077.47;7722065;32;38789;-71
2023/06/22 05:38:56;;;;;;;14.00;5.35;;;;;;;23.50;64.12;100078.97;7737321;32;37139;-72
2023/06/22 05:43:13;;;;;;;15.85;3.95;;;;;;;23.73;63.88;100082.84;7723525;32;39316;-71
2023/06/22 05:47:29;;;;;;;10.23;3.85;;;;;;;23.72;62.71;100085.97;7710202;32;40978;-72
2023/06/22 05:51:45;;;;;;;11.15;4.47;;;;;;;23.80;63.37;100085.81;7710179;32;39159;-72
2023/06/22 05:56:02;;;;;;;11.07;3.78;;;;;;;23.94;63.97;100081.81;7717399;32;37732;-72
2023/06/22 06:00:18;;;;;;;8.82;3.90;;;;;;;24.02;61.45;100077.28;7718933;32;40149;-72
2023/06/22 06:04:35;;;;;;;10.50;3.95;;;;;;;23.88;61.65;100081.28;7728595;32;40003;-72
2023/06/22 06:08:51;;;;;;;9.60;3.85;;;;;;;23.98;62.23;100077.97;7734449;32;37638;-68
2023/06/22 06:13:08;;;;;;;12.00;3.35;;;;;;;23.99;62.15;100082.41;7734084;32;37660;-69
2023/06/22 06:17:24;;;;;;;12.55;3.72;;;;;;;24.55;59.93;100084.28;7717604;32;39396;-68
2023/06/22 06:21:40;;;;;;;9.70;3.35;;;;;;;24.37;59.44;100083.00;7718537;32;39892;-69
2023/06/22 06:25:57;;;;;;;10.90;3.33;;;;;;;24.68;58.60;100078.63;7718057;32;37984;-70
2023/06/22 06:30:15;;;;;;;10.63;3.30;;;;;;;24.77;57.48;100072.84;7709665;32;266741;-69
2023/06/22 06:34:32;;;;;;;7.72;3.17;;;;;;;25.36;55.62;100077.44;7728684;32;40288;-69
2023/06/22 06:38:48;;;;;;;10.15;2.95;;;;;;;25.57;55.92;100070.72;7744778;32;40103;-68
2023/06/22 06:43:04;;;;;;;9.43;2.92;;;;;;;25.77;55.21;100066.75;7732217;32;37931;-72
2023/06/22 06:47:20;;;;;;;9.75;3.72;;;;;;;25.87;54.02;100056.94;7717596;32;37221;-72
2023/06/22 06:51:37;;;;;;;9.43;3.55;;;;;;;25.74;54.14;100059.09;7717563;32;40249;-71
2023/06/22 06:55:53;;;;;;;12.13;3.08;;;;;;;25.89;54.11;100056.59;7737832;32;40033;-73
2023/06/22 07:00:13;;;;;;;6.72;3.10;;;;;;;26.16;52.73;100058.31;7728204;32;37714;-81
2023/06/22 07:04:41;;;;;;;9.23;3.42;;;;;;;26.04;52.18;100050.94;7724936;32;37793;-82
2023/06/22 07:08:58;;;;;;;8.00;3.12;;;;;;;26.28;52.65;100056.53;7715941;32;39839;-81
2023/06/22 07:13:14;;;;;;;12.50;3.55;;;;;;;26.18;53.10;100061.59;7696934;32;39779;-81
2023/06/22 07:17:30;;;;;;;12.45;3.40;;;;;;;26.24;52.47;100048.91;7709516;32;38904;-82
2023/06/22 07:21:47;;;;;;;8.85;3.30;;;;;;;26.39;51.51;100054.75;7706764;32;37194;-80
2023/06/22 07:26:06;;;;;;;12.02;2.92;;;;;;;26.57;52.14;100053.06;7693973;32;39882;-81
2023/06/22 07:30:22;;;;;;;5.75;2.75;;;;;;;26.64;52.90;100048.81;7713310;32;39912;-83
2023/06/22 07:34:39;;;;;;;6.87;2.78;;;;;;;26.33;53.19;100057.03;7706192;32;38121;-80
2023/06/22 07:38:55;;;;;;;6.10;2.65;;;;;;;26.75;51.05;100060.94;7691252;32;37334;-82
2023/06/22 07:43:12;;;;;;;12.23;2.87;;;;;;;26.78;47.18;100060.22;7711240;32;39398;-83
2023/06/22 07:47:28;;;;;;;9.73;3.20;;;;;;;27.01;48.99;100057.37;7698269;32;40028;-83
2023/06/22 07:51:45;;;;;;;9.20;2.87;;;;;;;26.96;49.39;100043.72;7710180;32;38740;-81
2023/06/22 07:56:06;;;;;;;8.38;2.95;;;;;;;27.44;48.40;100041.22;7709869;32;38133;-81
2023/06/22 08:00:23;;;;;;;10.60;3.37;;;;;;;27.50;46.75;100045.25;7711919;32;39484;-82
2023/06/22 08:04:40;;;;;;;9.73;3.12;;;;;;;27.66;48.30;100041.44;7711855;32;39999;-82
2023/06/22 08:08:58;;;;;;;8.80;3.03;;;;;;;28.00;49.07;100033.06;7711558;32;38243;-81
2023/06/22 08:13:15;;;;;;;11.43;3.60;;;;;;;28.34;46.57;100030.97;7711818;32;37852;-82
2023/06/22 08:17:31;;;;;;;8.30;3.30;;;;;;;28.12;48.63;100037.59;7697586;32;39502;-82
2023/06/22 08:21:48;;;;;;;8.35;2.53;;;;;;;28.30;46.27;100018.91;7711647;32;39630;-81
2023/06/22 08:26:04;;;;;;;9.88;2.92;;;;;;;28.87;46.37;100015.78;7711454;32;38964;-82
2023/06/22 08:30:20;;;;;;;12.55;3.37;;;;;;;29.27;46.38;100018.81;7710203;32;37051;-84
2023/06/22 08:34:37;;;;;;;8.38;2.45;;;;;;;29.31;43.42;100031.69;7712704;32;39255;-78
2023/06/22 08:38:53;;;;;;;11.23;2.95;;;;;;;29.04;44.26;100022.69;7708075;32;40203;-81
2023/06/22 08:43:10;;;;;;;14.30;2.83;;;;;;;28.95;42.82;100031.47;7709566;32;37698;-83
2023/06/22 08:47:28;;;;;;;8.23;2.70;;;;;;;29.17;44.85;100026.81;7711092;32;37209;-84
2023/06/22 08:51:47;;;;;;;10.57;3.33;;;;;;;29.39;45.20;100021.31;7711378;32;39322;-82
2023/06/22 08:56:04;;;;;;;9.15;3.10;;;;;;;29.57;45.22;100016.56;7697532;32;40816;-83
2023/06/22 09:00:21;;;;;;;8.10;3.10;;;;;;;29.64;44.01;100009.34;7711202;32;37964;-82
2023/06/22 09:04:37;;;;;;;10.50;3.10;;;;;;;29.49;43.09;100011.31;7709261;32;37840;-83
2023/06/22 09:08:54;;;;;;;10.00;2.65;;;;;;;29.63;42.82;100002.94;7711104;32;39086;-82
2023/06/22 09:13:10;;;;;;;9.23;3.05;;;;;;;29.92;42.50;100001.00;7710918;32;40832;-83
2023/06/22 09:17:27;;;;;;;9.52;3.08;;;;;;;29.66;42.94;100002.13;7709267;32;37680;-80
2023/06/22 09:21:43;;;;;;;8.63;3.12;;;;;;;30.13;41.48;99993.81;7703004;32;37345;-82
2023/06/22 09:25:59;;;;;;;9.25;3.25;;;;;;;29.71;41.71;99996.13;7696883;32;38994;-83
2023/06/22 09:30:16;;;;;;;7.78;2.62;;;;;;;30.36;42.19;99996.28;7699981;32;39568;-82
2023/06/22 09:34:32;;;;;;;7.47;3.10;;;;;;;30.58;41.35;99997.06;7701887;32;37507;-83
2023/06/22 09:38:54;;;;;;;10.02;3.62;;;;;;;30.82;40.56;99994.59;7725365;32;37079;-83
2023/06/22 09:43:12;;;;;;;11.35;3.65;;;;;;;30.94;39.21;99993.41;7709537;32;38885;-83
2023/06/22 09:47:29;;;;;;;13.35;4.03;;;;;;;30.87;38.65;99985.75;7720809;32;40993;-83
2023/06/22 09:51:46;;;;;;;10.95;3.55;;;;;;;30.70;39.09;99985.41;7684074;32;39057;-82
2023/06/22 09:56:02;;;;;;;8.45;3.12;;;;;;;30.63;38.82;99990.22;7718310;32;37209;-82
2023/06/22 10:00:19;;;;;;;11.05;3.40;;;;;;;30.90;39.05;99988.53;7736923;32;39312;-82
2023/06/22 10:04:35;;;;;;;9.38;3.75;;;;;;;30.67;39.29;99991.03;7723029;32;40899;-82
2023/06/22 10:08:53;;;;;;;6.47;3.00;;;;;;;31.22;39.22;99981.25;7735875;32;37868;-82
2023/06/22 10:13:10;;;;;;;12.52;3.80;;;;;;;31.48;42.69;99976.28;7718617;32;37123;-83
2023/06/22 10:17:27;;;;;;;8.60;3.37;;;;;;;31.71;37.90;99973.78;7736490;32;40102;-82
2023/06/22 10:21:43;;;;;;;9.02;3.35;;;;;;;31.63;37.66;99969.41;7733642;32;41038;-82
2023/06/22 10:25:59;;;;;;;7.25;3.22;;;;;;;31.65;36.75;99964.19;7709399;32;37905;-79
2023/06/22 10:30:16;;;;;;;7.50;3.80;;;;;;;32.13;35.41;99977.56;7709224;32;37533;-84
2023/06/22 10:34:33;;;;;;;12.77;3.50;;;;;;;32.21;36.52;99977.50;7709279;32;40093;-80
2023/06/22 10:38:50;;;;;;;9.60;4.00;;;;;;;32.80;37.08;99959.62;7709185;32;40593;-82
2023/06/22 10:43:06;;;;;;;12.02;3.60;;;;;;;33.20;34.51;99963.63;7723398;32;38754;-83
2023/06/22 10:47:22;;;;;;;6.97;3.55;;;;;;;33.48;29.93;99967.31;7713246;32;37348;-84
2023/06/22 10:51:39;;;;;;;11.38;3.83;;;;;;;33.85;33.98;99968.41;7713915;32;40013;-84
2023/06/22 10:55:55;;;;;;;10.20;4.00;;;;;;;33.13;33.02;99964.47;7739380;32;39903;-84
2023/06/22 11:00:13;;;;;;;9.15;3.08;;;;;;;33.40;32.19;99960.94;7721529;32;37883;-84
2023/06/22 11:04:30;;;;;;;10.15;4.00;;;;;;;33.16;30.82;99962.06;7731542;32;36876;-84
2023/06/22 11:08:46;;;;;;;8.57;3.60;;;;;;;32.71;32.80;99960.12;7739075;32;40149;-86
2023/06/22 11:13:19;;;;;;;7.62;3.67;;;;;;;32.79;32.85;99958.84;7727252;32;40432;-86
2023/06/22 11:17:36;;;;;;;8.88;3.80;;;;;;;33.36;34.48;99950.88;7711760;32;38473;-83
2023/06/22 11:21:52;;;;;;;9.05;3.25;;;;;;;33.22;32.12;99954.69;7717725;32;37145;-84
2023/06/22 11:26:09;;;;;;;10.50;3.97;;;;;;;33.54;31.04;99937.31;7735681;32;39299;-84
2023/06/22 11:30:25;;;;;;;10.95;3.78;;;;;;;33.09;32.50;99941.13;7712102;32;40118;-82
2023/06/22 11:34:42;;;;;;;9.63;4.00;;;;;;;32.98;34.77;99940.47;7726546;32;37959;-82
2023/06/22 11:38:59;;;;;;;8.95;3.53;;;;;;;33.25;32.16;99942.56;7712140;32;37079;-83
2023/06/22 11:43:15;;;;;;;9.32;3.85;;;;;;;33.45;32.46;99928.59;7714855;32;40138;-83
2023/06/22 11:47:31;;;;;;;10.05;3.75;;;;;;;33.34;31.55;99933.56;7738769;32;39677;-82
2023/06/22 11:51:49;;;;;;;11.15;3.72;;;;;;;33.75;32.26;99929.78;7714654;32;38325;-84
2023/06/22 11:56:06;;;;;;;12.20;4.37;;;;;;;33.57;34.16;99927.22;7711872;32;37116;-84
2023/06/22 12:00:26;;;;;;;8.77;3.30;;;;;;;34.15;30.55;99919.44;7705842;32;40133;-84
2023/06/22 12:04:46;;;;;;;8.55;3.80;;;;;;;33.92;29.22;99917.37;7702490;32;40777;-83
2023/06/22 12:09:04;;;;;;;10.57;3.50;;;;;;;33.97;29.87;99914.06;7698107;32;38132;-83
2023/06/22 12:13:21;;;;;;;6.07;3.12;;;;;;;34.02;30.58;99910.75;7698954;32;37412;-83
2023/06/22 12:17:37;;;;;;;6.75;3.28;;;;;;;34.41;28.48;99908.50;7701930;32;38801;-84
2023/06/22 12:21:53;;;;;;;8.18;3.40;;;;;;;34.91;30.49;99901.06;7689947;32;39626;-83
2023/06/22 12:26:10;;;;;;;11.15;3.75;;;;;;;34.01;28.82;99903.50;7705804;32;37580;-83
2023/06/22 12:30:26;;;;;;;8.35;3.50;;;;;;;34.25;30.33;99900.69;7711259;32;37904;-82
2023/06/22 12:34:44;;;;;;;7.75;3.10;;;;;;;34.16;29.09;99891.94;7711468;32;39479;-82
2023/06/22 12:39:00;;;;;;;11.35;3.40;;;;;;;35.08;28.72;99882.09;7711330;32;40735;-82
2023/06/22 12:43:17;;;;;;;8.63;3.45;;;;;;;35.52;27.27;99874.25;7711234;32;38023;-83
2023/06/22 12:47:33;;;;;;;13.10;3.53;;;;;;;35.69;27.53;99875.06;7711220;32;37880;-82
2023/06/22 12:51:50;;;;;;;10.38;3.70;;;;;;;35.37;27.85;99876.63;7711220;32;39187;-83
2023/06/22 12:56:06;;;;;;;8.32;3.35;;;;;;;35.14;28.41;99875.47;7711100;32;39965;-83
2023/06/22 13:00:23;;;;;;;14.35;3.78;;;;;;;35.58;29.56;99869.63;7711144;32;38041;-83
2023/06/22 13:04:39;;;;;;;12.70;3.70;;;;;;;35.59;29.32;99864.78;7709807;32;38030;-82
2023/06/22 13:08:55;;;;;;;8.63;4.53;;;;;;;36.12;29.36;99867.50;7710948;32;39404;-82
2023/06/22 13:13:33;;;;;;;10.60;3.53;;;;;;;36.68;30.25;99863.56;7709578;32;39957;-81
2023/06/22 13:17:50;;;;;;;12.35;4.95;;;;;;;36.34;28.24;99851.56;7710830;32;36939;-82
2023/06/22 13:22:28;;;;;;;10.75;3.60;;;;;;;37.12;27.37;99852.53;7710954;32;37245;-84
2023/06/22 13:26:44;;;;;;;7.37;3.15;;;;;;;37.21;28.02;99844.19;7710792;32;39514;-85
2023/06/22 13:31:01;;;;;;;11.10;3.53;;;;;;;37.31;27.11;99836.53;7696635;32;39952;-85
2023/06/22 13:35:17;;;;;;;7.78;3.37;;;;;;;37.25;26.93;99836.31;7710464;32;37971;-84
2023/06/22 13:39:33;;;;;;;7.90;3.53;;;;;;;37.36;28.35;99839.63;7710496;32;36997;-85
2023/06/22 13:43:50;;;;;;;7.43;3.03;;;;;;;37.87;28.35;99832.31;7709987;32;39357;-86
2023/06/22 13:48:06;;;;;;;8.05;3.65;;;;;;;38.05;27.37;99837.34;7702400;32;40807;-86
2023/06/22 13:52:22;;;;;;;9.20;3.60;;;;;;;38.18;26.95;99829.59;7702395;32;38755;-84
2023/06/22 13:56:39;;;;;;;11.50;3.70;;;;;;;38.53;27.29;99820.22;7698763;32;37825;-85
2023/06/22 14:00:55;;;;;;;5.03;3.25;;;;;;;38.87;27.52;99808.72;7702094;32;40263;-85
2023/06/22 14:05:12;;;;;;;9.48;3.92;;;;;;;38.91;28.34;99810.66;7700842;32;39568;-85
2023/06/22 14:09:29;;;;;;;8.30;3.42;;;;;;;38.77;27.37;99809.16;7696807;32;37959;-85
2023/06/22 14:13:45;;;;;;;11.93;3.80;;;;;;;38.71;27.67;99811.03;7695706;32;37150;-84
2023/06/22 14:18:02;;;;;;;7.82;3.60;;;;;;;38.44;27.61;99804.66;7703445;32;39052;-86
2023/06/22 14:22:19;;;;;;;8.20;3.15;;;;;;;38.54;28.84;99796.97;7704400;32;40727;-84
2023/06/22 14:26:36;;;;;;;8.90;3.80;;;;;;;38.95;27.77;99802.78;7712058;32;38606;-87
2023/06/22 14:30:52;;;;;;;14.38;3.83;;;;;;;39.18;28.25;99790.06;7712651;32;37887;-86
2023/06/22 14:35:08;;;;;;;9.63;3.90;;;;;;;39.06;27.93;99789.69;7712800;32;40037;-86
2023/06/22 14:39:25;;;;;;;13.18;3.60;;;;;;;39.17;27.22;99777.88;7712208;32;41093;-86
2023/06/22 14:43:46;;;;;;;8.32;3.78;;;;;;;39.23;27.18;99781.69;7712598;32;37985;-85
2023/06/22 14:48:02;;;;;;;10.73;3.53;;;;;;;39.23;27.60;99775.97;7712750;32;37916;-86
2023/06/22 14:52:19;;;;;;;10.32;3.40;;;;;;;39.23;27.69;99780.91;7712657;32;39244;-85
2023/06/22 14:56:35;;;;;;;11.63;3.45;;;;;;;39.41;27.08;99774.44;7712506;32;40800;-85
2023/06/22 15:00:51;;;;;;;6.57;3.08;;;;;;;39.12;27.77;99781.34;7712448;32;38632;-86
2023/06/22 15:05:08;;;;;;;7.60;3.30;;;;;;;39.42;27.88;99758.94;7712475;32;37328;-86
2023/06/22 15:09:25;;;;;;;8.80;3.55;;;;;;;39.61;26.52;99751.22;7712355;32;39330;-85
2023/06/22 15:13:41;;;;;;;8.70;3.72;;;;;;;39.41;28.35;99760.19;7712283;32;40755;-87
2023/06/22 15:17:58;;;;;;;8.05;3.33;;;;;;;39.56;28.11;99746.16;7697523;32;38458;-87
2023/06/22 15:22:16;;;;;;;11.38;3.90;;;;;;;39.54;27.46;99752.31;7712224;32;37118;-88
2023/06/22 15:26:33;;;;;;;7.07;3.58;;;;;;;39.65;27.08;99739.66;7711151;32;38244;-87
2023/06/22 15:30:50;;;;;;;7.97;3.65;;;;;;;39.42;27.39;99738.97;7710928;32;40905;-86
2023/06/22 15:35:06;;;;;;;8.32;3.95;;;;;;;39.54;27.96;99735.22;7712195;32;37996;-82
2023/06/22 15:39:24;;;;;;;8.45;4.20;;;;;;;39.16;28.97;99738.44;7712218;32;37820;-79
2023/06/22 15:43:41;;;;;;;11.25;3.83;;;;;;;39.22;28.34;99740.22;7712006;32;40086;-79
2023/06/22 15:47:57;;;;;;;9.57;3.87;;;;;;;39.02;28.04;99742.66;7707284;32;40853;-79
2023/06/22 15:52:17;;;;;;;9.13;3.78;;;;;;;39.01;28.91;99741.84;7711656;32;38697;-79
2023/06/22 15:56:33;;;;;;;7.37;3.55;;;;;;;38.93;29.12;99734.84;7696118;32;36794;-79
2023/06/22 16:00:50;;;;;;;6.47;3.95;;;;;;;38.64;29.34;99741.69;7699792;32;39052;-79
2023/06/22 16:05:09;;;;;;;11.15;4.68;;;;;;;38.59;29.34;99745.12;7686111;32;40050;-79
2023/06/22 16:09:26;;;;;;;9.20;3.95;;;;;;;38.41;30.40;99742.97;7710849;32;38430;-79
2023/06/22 16:13:43;;;;;;;10.80;3.80;;;;;;;38.18;28.86;99740.59;7711666;32;37957;-79
2023/06/22 16:17:59;;;;;;;10.20;4.30;;;;;;;38.09;29.89;99736.38;7710887;32;39405;-79
2023/06/22 16:22:17;;;;;;;11.35;4.12;;;;;;;37.93;30.71;99733.75;7711429;32;39758;-78
2023/06/22 16:26:42;;;;;;;7.68;3.85;;;;;;;37.70;31.84;99732.13;7711255;32;38607;-78
2023/06/22 16:30:59;;;;;;;9.77;3.83;;;;;;;37.67;31.81;99725.31;7709426;32;37204;-78
2023/06/22 16:35:16;;;;;;;11.75;3.67;;;;;;;37.17;32.21;99730.62;7716926;32;39369;-79
2023/06/22 16:39:32;;;;;;;11.00;4.00;;;;;;;37.10;32.05;99727.19;7711980;32;40064;-79
2023/06/22 16:43:49;;;;;;;11.90;4.32;;;;;;;36.95;32.90;99721.97;7700661;32;38053;-78
2023/06/22 16:48:06;;;;;;;10.25;4.18;;;;;;;36.75;33.25;99729.94;7709901;32;37682;-78
2023/06/22 16:52:22;;;;;;;10.00;4.12;;;;;;;36.18;34.32;99724.66;7732172;32;39573;-79
2023/06/22 16:56:39;;;;;;;12.32;4.10;;;;;;;35.99;35.27;99722.78;7723817;32;39907;-78
2023/06/22 17:00:56;;;;;;;9.93;4.43;;;;;;;35.65;35.64;99716.41;7710301;32;36077;-79
2023/06/22 17:05:13;;;;;;;8.88;4.05;;;;;;;35.57;35.56;99717.03;7697420;32;37850;-82
2023/06/22 17:09:31;;;;;;;12.50;4.10;;;;;;;35.21;36.28;99720.75;7710095;32;39213;-82
2023/06/22 17:13:51;;;;;;;13.57;4.68;;;;;;;35.02;36.81;99717.56;7701287;32;39620;-81
2023/06/22 17:18:14;;;;;;;11.63;4.68;;;;;;;34.68;37.87;99718.72;7708220;32;38726;-81
2023/06/22 17:22:35;;;;;;;7.65;4.03;;;;;;;34.41;38.57;99721.75;7710166;32;37825;-81
2023/06/22 17:26:55;;;;;;;10.68;4.60;;;;;;;34.15;39.61;99720.63;7710445;32;39841;-80
2023/06/22 17:31:12;;;;;;;10.10;4.75;;;;;;;33.86;40.98;99712.72;7709729;32;40698;-80
2023/06/22 17:35:30;;;;;;;10.68;4.62;;;;;;;33.84;40.96;99706.69;7729052;32;37917;-82
2023/06/22 17:39:54;;;;;;;10.23;4.82;;;;;;;33.71;41.17;99705.75;7706340;32;37934;-79
2023/06/22 17:44:15;;;;;;;11.82;4.97;;;;;;;33.54;41.78;99704.81;7710305;32;39249;-79
2023/06/22 17:48:32;;;;;;;8.00;4.20;;;;;;;33.32;42.23;99699.53;7689670;32;39450;-83
2023/06/22 17:52:55;;;;;;;7.82;3.90;;;;;;;33.00;43.22;99700.84;7695842;32;38019;-81
2023/06/22 17:57:18;;;;;;;11.63;4.47;;;;;;;33.17;42.19;99709.47;7709960;32;37266;-80
2023/06/22 18:01:37;;;;;;;11.03;4.43;;;;;;;33.04;42.99;99706.44;7709593;32;39835;-78
2023/06/22 18:05:55;;;;;;;8.40;4.32;;;;;;;32.93;43.39;99703.78;7708123;32;38970;-81
2023/06/22 18:10:11;;;;;;;13.38;4.78;;;;;;;32.59;44.50;99704.66;7696039;32;37971;-81
2023/06/22 18:14:28;;;;;;;8.52;4.40;;;;;;;32.43;44.93;99705.28;7709553;32;38550;-81
2023/06/22 18:18:48;;;;;;;7.65;4.43;;;;;;;32.18;45.21;99709.22;7709390;32;39182;-83
2023/06/22 18:23:05;;;;;;;11.07;4.30;;;;;;;31.97;45.71;99710.22;7708187;32;40809;-80
2023/06/22 18:27:22;;;;;;;8.45;4.43;;;;;;;31.78;46.15;99706.00;7709459;32;38036;-81
2023/06/22 18:31:39;;;;;;;11.65;4.28;;;;;;;31.60;46.13;99713.88;7695770;32;38001;-79
2023/06/22 18:35:56;;;;;;;11.38;4.80;;;;;;;31.36;45.79;99705.19;7703163;32;39511;-79
2023/06/22 18:40:16;;;;;;;10.90;4.68;;;;;;;31.14;46.40;99715.81;7696146;32;40861;-79
2023/06/22 18:44:38;;;;;;;10.23;4.62;;;;;;;31.04;46.29;99716.72;7706348;32;37864;-79
2023/06/22 18:49:01;;;;;;;8.35;4.10;;;;;;;30.90;46.70;99711.94;7696143;32;37266;-82
2023/06/22 18:53:28;;;;;;;12.02;4.05;;;;;;;30.53;47.12;99721.84;7686847;32;39928;-81
2023/06/22 18:57:45;;;;;;;8.30;4.55;;;;;;;30.50;47.05;99722.66;7703117;32;39999;-81
2023/06/22 19:02:01;;;;;;;10.48;4.60;;;;;;;30.39;46.92;99735.94;7709642;32;38154;-81
2023/06/22 19:06:52;;;;;;;9.35;4.60;;;;;;;30.19;47.14;99733.59;7706409;32;36803;-82
2023/06/22 19:11:14;;;;;;;12.60;4.65;;;;;;;30.15;47.31;99730.00;7702320;32;40217;-79
2023/06/22 19:15:33;;;;;;;10.65;5.20;;;;;;;29.98;47.70;99737.28;7712325;32;39972;-80
2023/06/22 19:19:51;;;;;;;9.20;4.43;;;;;;;29.80;48.29;99762.59;7712313;32;37911;-80
2023/06/22 19:24:27;;;;;;;12.77;5.12;;;;;;;29.74;48.29;99756.53;7698950;32;39160;-80
2023/06/22 19:28:48;;;;;;;9.05;4.72;;;;;;;29.54;49.04;99775.81;7709023;32;40056;-80
2023/06/22 19:33:07;;;;;;;9.88;4.80;;;;;;;29.65;48.40;99763.78;7690163;32;39971;-79
2023/06/22 19:37:27;;;;;;;10.20;4.03;;;;;;;29.45;48.69;99761.38;7708984;32;36731;-79
2023/06/22 19:41:46;;;;;;;9.98;4.70;;;;;;;29.33;48.98;99767.41;7708132;32;37924;-79
2023/06/22 19:46:04;;;;;;;7.97;4.15;;;;;;;29.20;49.21;99779.03;7709509;32;39913;-81
2023/06/22 19:50:22;;;;;;;12.68;4.60;;;;;;;29.15;49.34;99785.00;7696532;32;40857;-80
2023/06/22 19:54:41;;;;;;;8.73;4.10;;;;;;;29.13;49.51;99778.97;7709920;32;38694;-79
2023/06/22 19:59:05;;;;;;;10.98;4.43;;;;;;;28.94;49.80;99780.16;7696386;32;37143;-79
2023/06/22 20:03:36;;;;;;;14.63;5.32;;;;;;;28.89;49.88;99779.72;7697225;32;39915;-80